createdAt,value
2023-02-24T00:06:12.112Z,4
2023-02-24T00:09:12.053Z,4
2023-02-24T00:12:12.021Z,4
2023-02-24T00:15:12.080Z,4
2023-02-24T00:18:12.029Z,4
2023-02-24T00:21:12.047Z,4
2023-02-24T00:24:12.067Z,4
2023-02-24T00:27:12.628Z,3.9
2023-02-24T00:30:12.091Z,3.9
2023-02-24T00:33:12.719Z,3.9
2023-02-24T00:36:12.023Z,3.9
2023-02-24T00:39:12.089Z,3.9
2023-02-24T00:42:12.375Z,3.7
2023-02-24T00:45:12.128Z,3.7
2023-02-24T00:48:12.086Z,3.7
2023-02-24T00:51:12.076Z,3.9
2023-02-24T00:54:12.010Z,3.9
2023-02-24T00:57:12.094Z,3.9
2023-02-24T01:00:12.007Z,3.9
2023-02-24T01:03:12.148Z,3.9
2023-02-24T01:06:12.102Z,3.7
2023-02-24T01:09:12.194Z,3.7
2023-02-24T01:12:12.823Z,3.6
2023-02-24T01:15:12.303Z,3.5
2023-02-24T01:18:12.018Z,3.2
2023-02-24T01:21:12.047Z,3.1
2023-02-24T01:24:12.107Z,2.9
2023-02-24T01:27:12.116Z,2.7
2023-02-24T01:30:12.101Z,2.6
2023-02-24T01:33:13.668Z,2.6
2023-02-24T01:36:12.129Z,2.5
2023-02-24T01:39:11.987Z,2.4
2023-02-24T01:42:12.042Z,2.5
2023-02-24T01:45:12.283Z,2.6
2023-02-24T01:48:12.173Z,2.7
2023-02-24T01:51:12.060Z,2.7
2023-02-24T01:54:12.312Z,3
2023-02-24T01:57:12.197Z,3
2023-02-24T02:00:12.241Z,3.1
2023-02-24T02:03:12.393Z,3.2
2023-02-24T02:06:12.425Z,3.4
2023-02-24T02:09:12.143Z,3.5
2023-02-24T02:12:12.222Z,3.5
2023-02-24T02:15:12.340Z,3.6
2023-02-24T02:18:12.199Z,3.6
2023-02-24T02:21:12.167Z,3.6
2023-02-24T02:24:12.148Z,3.6
2023-02-24T02:27:12.280Z,3.6
2023-02-24T02:30:12.139Z,3.7
2023-02-24T02:33:12.165Z,3.7
2023-02-24T02:36:12.257Z,3.7
2023-02-24T02:39:12.207Z,3.7
2023-02-24T02:42:12.187Z,3.7
2023-02-24T02:45:12.281Z,3.9
2023-02-24T02:48:12.188Z,3.9
2023-02-24T02:51:12.227Z,3.9
2023-02-24T02:54:12.156Z,3.9
2023-02-24T02:57:12.180Z,3.7
2023-02-24T03:00:12.238Z,3.7
2023-02-24T03:03:12.192Z,3.7
2023-02-24T03:06:12.175Z,3.7
2023-02-24T03:09:12.254Z,3.9
2023-02-24T03:12:12.324Z,3.7
2023-02-24T03:15:12.450Z,3.7
2023-02-24T03:18:12.129Z,3.7
2023-02-24T03:21:12.243Z,3.7
2023-02-24T03:24:12.119Z,3.7
2023-02-24T03:27:12.162Z,3.7
2023-02-24T03:30:12.342Z,3.7
2023-02-24T03:33:12.207Z,3.7
2023-02-24T03:36:12.196Z,3.7
2023-02-24T03:39:12.235Z,3.7
2023-02-24T03:42:12.166Z,3.7
2023-02-24T03:45:12.252Z,3.7
2023-02-24T03:48:12.314Z,3.7
2023-02-24T03:51:12.152Z,3.7
2023-02-24T03:54:12.139Z,3.7
2023-02-24T03:57:12.123Z,3.7
2023-02-24T04:00:12.184Z,3.7
2023-02-24T04:03:12.167Z,3.7
2023-02-24T04:06:12.208Z,3.7
2023-02-24T04:09:12.145Z,3.7
2023-02-24T04:12:12.155Z,3.7
2023-02-24T04:15:12.174Z,3.7
2023-02-24T04:18:12.369Z,3.7
2023-02-24T04:21:12.245Z,3.7
2023-02-24T04:24:12.162Z,3.7
2023-02-24T04:27:12.237Z,3.7
2023-02-24T04:30:12.186Z,3.7
2023-02-24T04:33:12.218Z,3.7
2023-02-24T04:36:12.217Z,3.7
2023-02-24T04:39:12.152Z,3.7
2023-02-24T04:42:12.209Z,3.7
2023-02-24T04:45:12.159Z,3.7
2023-02-24T04:48:12.445Z,3.7
2023-02-24T04:51:12.095Z,3.7
2023-02-24T04:54:12.144Z,3.7
2023-02-24T04:57:12.137Z,3.7
2023-02-24T05:00:12.282Z,3.7
2023-02-24T05:03:12.180Z,3.7
2023-02-24T05:06:12.149Z,3.7
2023-02-24T05:09:12.164Z,3.7
2023-02-24T05:12:12.184Z,3.7
2023-02-24T05:15:12.228Z,3.7
2023-02-24T05:18:12.483Z,3.7
2023-02-24T05:21:13.308Z,3.6
2023-02-24T05:24:12.336Z,3.6
2023-02-24T05:27:12.130Z,3.6
2023-02-24T05:30:12.350Z,3.6
2023-02-24T05:33:12.206Z,3.6
2023-02-24T05:36:13.678Z,3.6
2023-02-24T05:39:12.633Z,3.6
2023-02-24T05:42:12.115Z,3.6
2023-02-24T05:45:12.219Z,3.6
2023-02-24T05:48:12.180Z,3.5
2023-02-24T05:51:14.083Z,3.6
2023-02-24T05:54:12.134Z,3.5
2023-02-24T05:57:12.241Z,3.5
2023-02-24T06:00:12.218Z,3.5
2023-02-24T06:03:12.801Z,3.6
2023-02-24T06:06:12.234Z,3.6
2023-02-24T06:09:12.092Z,3.6
2023-02-24T06:12:12.694Z,3.6
2023-02-24T06:15:12.719Z,3.6
2023-02-24T06:18:12.325Z,3.5
2023-02-24T06:21:12.186Z,3.5
2023-02-24T06:24:12.237Z,3.5
2023-02-24T06:27:12.191Z,3.4
2023-02-24T06:30:13.002Z,3.4
2023-02-24T06:33:12.207Z,3.5
2023-02-24T06:36:12.270Z,3.5
2023-02-24T06:39:12.186Z,3.5
2023-02-24T06:42:12.232Z,3.6
2023-02-24T06:45:14.444Z,3.6
2023-02-24T06:48:12.429Z,3.6
2023-02-24T06:51:12.264Z,3.7
2023-02-24T06:54:12.205Z,3.7
2023-02-24T06:57:12.342Z,3.9
2023-02-24T07:00:12.420Z,4
2023-02-24T07:03:12.358Z,4.1
2023-02-24T07:06:12.276Z,4.2
2023-02-24T07:09:12.260Z,4.4
2023-02-24T07:12:12.243Z,4.5
2023-02-24T07:15:12.247Z,4.6
2023-02-24T07:18:12.212Z,4.7
2023-02-24T07:21:12.209Z,4.7
2023-02-24T07:24:12.291Z,4.7
2023-02-24T07:27:12.228Z,4.7
2023-02-24T07:30:12.561Z,4.9
2023-02-24T07:33:12.264Z,5
2023-02-24T07:36:12.241Z,5.1
2023-02-24T07:39:12.357Z,5.2
2023-02-24T07:42:12.344Z,5.4
2023-02-24T07:45:12.628Z,5.5
2023-02-24T07:48:12.774Z,5.6
2023-02-24T07:51:12.242Z,5.7
2023-02-24T07:54:12.518Z,6
2023-02-24T07:57:12.223Z,6.1
2023-02-24T08:00:16.843Z,6.1
2023-02-24T08:03:12.357Z,6.2
2023-02-24T08:06:12.299Z,6.4
2023-02-24T08:09:12.247Z,6.4
2023-02-24T08:12:12.427Z,6.4
2023-02-24T08:15:12.242Z,6.4
2023-02-24T08:18:12.274Z,6.5
2023-02-24T08:21:12.229Z,6.4
2023-02-24T08:24:12.257Z,6.4
2023-02-24T08:27:12.294Z,6.4
2023-02-24T08:30:12.416Z,6.5
2023-02-24T08:33:12.196Z,6.6
2023-02-24T08:36:13.699Z,6.6
2023-02-24T08:39:12.302Z,6.6
2023-02-24T08:42:12.259Z,6.5
2023-02-24T08:45:12.356Z,6.5
2023-02-24T08:48:12.254Z,6.5
2023-02-24T08:51:12.274Z,6.5
2023-02-24T08:54:12.407Z,6.5
2023-02-24T08:57:12.273Z,6.5
2023-02-24T09:00:12.426Z,6.5
2023-02-24T09:03:12.390Z,6.5
2023-02-24T09:06:12.214Z,6.6
2023-02-24T09:09:12.290Z,6.6
2023-02-24T09:12:12.266Z,6.6
2023-02-24T09:15:12.394Z,6.5
2023-02-24T09:18:12.449Z,6.4
2023-02-24T09:21:12.342Z,6.4
2023-02-24T09:24:12.317Z,6.2
2023-02-24T09:27:12.323Z,6.2
2023-02-24T09:30:12.335Z,6.1
2023-02-24T09:33:13.629Z,6
2023-02-24T09:36:12.635Z,6
2023-02-24T09:39:12.671Z,6
2023-02-24T09:42:12.459Z,6
2023-02-24T09:45:12.496Z,5.9
2023-02-24T09:48:12.239Z,5.9
2023-02-24T09:51:16.069Z,5.7
2023-02-24T09:54:12.218Z,5.6
2023-02-24T09:57:12.915Z,5.4
2023-02-24T10:00:13.146Z,5
2023-02-24T10:03:12.194Z,4.9
2023-02-24T10:06:12.513Z,4.6
2023-02-24T10:09:12.358Z,4.5
2023-02-24T10:12:12.255Z,4.6
2023-02-24T10:15:12.296Z,4.6
2023-02-24T10:18:12.199Z,4.6
2023-02-24T10:21:12.779Z,4.6
2023-02-24T10:24:12.436Z,4.5
2023-02-24T10:27:25.712Z,4.5
2023-02-24T10:30:12.564Z,4.5
2023-02-24T10:33:12.586Z,4.6
2023-02-24T10:36:12.524Z,4.9
2023-02-24T10:39:12.276Z,5.1
2023-02-24T10:42:12.542Z,5.4
2023-02-24T10:45:25.607Z,5.5
2023-02-24T10:48:15.585Z,5.6
2023-02-24T10:51:12.286Z,6
2023-02-24T10:54:12.701Z,6
2023-02-24T10:57:12.431Z,6
2023-02-24T11:00:12.398Z,6
2023-02-24T11:03:13.039Z,6
2023-02-24T11:06:12.432Z,5.9
2023-02-24T11:09:12.280Z,5.9
2023-02-24T11:12:12.298Z,5.9
2023-02-24T11:15:12.469Z,6
2023-02-24T11:18:12.528Z,6.1
2023-02-24T11:21:12.259Z,6.1
2023-02-24T11:24:12.251Z,6
2023-02-24T11:27:16.958Z,5.9
2023-02-24T11:30:12.296Z,5.7
2023-02-24T11:33:12.440Z,5.7
2023-02-24T11:36:12.205Z,5.6
2023-02-24T11:39:32.450Z,5.7
2023-02-24T11:42:12.653Z,6.1
2023-02-24T11:45:12.712Z,6.7
2023-02-24T11:48:12.357Z,7.2
2023-02-24T11:51:12.245Z,7.6
2023-02-24T11:54:12.257Z,8
2023-02-24T11:57:12.197Z,7.9
2023-02-24T12:00:12.505Z,7.4
2023-02-24T12:03:15.858Z,6.9
2023-02-24T12:06:12.945Z,6.5
2023-02-24T12:09:12.391Z,6.1
2023-02-24T12:12:14.014Z,5.9
2023-02-24T12:15:12.307Z,5.7
2023-02-24T12:18:14.371Z,5.6
2023-02-24T12:21:12.268Z,5.5
2023-02-24T12:24:15.073Z,5.2
2023-02-24T12:27:12.225Z,5
2023-02-24T12:30:12.394Z,4.9
2023-02-24T12:33:12.634Z,4.7
2023-02-24T12:36:12.340Z,4.7
2023-02-24T12:39:12.293Z,4.7
2023-02-24T12:42:12.252Z,4.6
2023-02-24T12:45:12.271Z,4.7
2023-02-24T12:48:12.218Z,4.6
2023-02-24T12:51:12.293Z,4.5
2023-02-24T12:54:12.484Z,4.5
2023-02-24T12:57:12.404Z,4.5
2023-02-24T13:00:12.407Z,4.5
2023-02-24T13:03:12.232Z,4.5
2023-02-24T13:06:12.251Z,4.5
2023-02-24T13:09:12.360Z,4.6
2023-02-24T13:12:12.251Z,4.6
2023-02-24T13:15:12.263Z,4.6
2023-02-24T13:18:12.486Z,4.6
2023-02-24T13:21:12.340Z,4.6
2023-02-24T13:24:12.226Z,4.5
2023-02-24T13:27:12.279Z,4.4
2023-02-24T13:30:12.595Z,4.2
2023-02-24T13:33:12.182Z,4.2
2023-02-24T13:36:12.249Z,4.4
2023-02-24T13:39:12.218Z,4.6
2023-02-24T13:42:12.606Z,4.7
2023-02-24T13:45:12.239Z,4.7
2023-02-24T13:48:14.471Z,4.5
2023-02-24T13:51:12.292Z,4.4
2023-02-24T13:54:12.254Z,4.1
2023-02-24T13:57:12.275Z,3.9
2023-02-24T14:00:12.649Z,3.7
2023-02-24T14:03:12.308Z,3.9
2023-02-24T14:06:12.341Z,4
2023-02-24T14:09:13.093Z,4
2023-02-24T14:12:12.265Z,3.9
2023-02-24T14:15:12.331Z,3.9
2023-02-24T14:18:12.188Z,3.9
2023-02-24T14:21:12.267Z,4
2023-02-24T14:24:13.084Z,4
2023-02-24T14:27:12.414Z,4
2023-02-24T14:30:12.486Z,4.1
2023-02-24T14:33:12.310Z,4.2
2023-02-24T14:36:12.244Z,4.1
2023-02-24T14:39:13.206Z,4
2023-02-24T14:42:12.328Z,3.7
2023-02-24T14:45:12.526Z,3.7
2023-02-24T14:48:12.364Z,3.7
2023-02-24T14:51:12.254Z,3.7
2023-02-24T14:54:12.218Z,3.6
2023-02-24T14:57:12.377Z,3.5
2023-02-24T15:00:12.456Z,3.6
2023-02-24T15:03:12.707Z,3.7
2023-02-24T15:06:12.205Z,4.2
2023-02-24T15:09:12.355Z,4.4
2023-02-24T15:12:12.253Z,4.4
2023-02-24T15:15:12.410Z,4.5
2023-02-24T15:18:12.260Z,4.4
2023-02-24T15:21:12.503Z,4.2
2023-02-24T15:24:12.549Z,4.1
2023-02-24T15:27:12.228Z,4
2023-02-24T15:30:12.442Z,3.9
2023-02-24T15:33:12.544Z,3.6
2023-02-24T15:36:12.260Z,3.5
2023-02-24T15:39:12.250Z,3.5
2023-02-24T15:42:12.289Z,3.4
2023-02-24T15:45:12.394Z,3.4
2023-02-24T15:48:12.248Z,3.5
2023-02-24T15:51:12.194Z,3.5
2023-02-24T15:54:12.563Z,3.5
2023-02-24T15:57:12.389Z,3.5
2023-02-24T16:00:12.278Z,3.6
2023-02-24T16:03:12.235Z,3.6
2023-02-24T16:06:14.612Z,3.7
2023-02-24T16:09:12.217Z,3.7
2023-02-24T16:12:12.276Z,3.7
2023-02-24T16:15:12.439Z,3.6
2023-02-24T16:18:12.242Z,3.6
2023-02-24T16:21:12.640Z,3.6
2023-02-24T16:24:12.328Z,3.5
2023-02-24T16:27:12.370Z,3.5
2023-02-24T16:30:12.510Z,3.5
2023-02-24T16:33:13.462Z,3.5
2023-02-24T16:36:12.305Z,3.5
2023-02-24T16:39:12.365Z,3.4
2023-02-24T16:42:12.248Z,3.4
2023-02-24T16:45:12.291Z,3.4
2023-02-24T16:48:13.873Z,3.4
2023-02-24T16:51:12.173Z,3.4
2023-02-24T16:54:12.168Z,3.4
2023-02-24T16:57:12.241Z,3.4
2023-02-24T17:00:12.269Z,3.4
2023-02-24T17:03:12.271Z,3.4
2023-02-24T17:06:12.899Z,3.5
2023-02-24T17:09:12.210Z,3.5
2023-02-24T17:12:12.485Z,3.5
2023-02-24T17:15:12.500Z,3.5
2023-02-24T17:18:12.351Z,3.5
2023-02-24T17:21:12.133Z,3.5
2023-02-24T17:24:12.715Z,3.5
2023-02-24T17:27:12.268Z,3.5
2023-02-24T17:30:12.208Z,3.4
2023-02-24T17:33:12.304Z,3.4
2023-02-24T17:36:12.190Z,3.4
2023-02-24T17:39:12.189Z,3.2
2023-02-24T17:42:13.083Z,3.1
2023-02-24T17:45:12.204Z,3
2023-02-24T17:48:12.227Z,3
2023-02-24T17:51:12.154Z,3
2023-02-24T17:54:12.379Z,3.1
2023-02-24T17:57:12.212Z,3.2
2023-02-24T18:00:12.264Z,3.4
2023-02-24T18:03:15.869Z,3.4
2023-02-24T18:06:12.178Z,3.5
2023-02-24T18:09:12.200Z,3.5
2023-02-24T18:12:12.296Z,3.5
2023-02-24T18:15:20.605Z,3.6
2023-02-24T18:18:12.255Z,3.6
2023-02-24T18:21:12.223Z,3.6
2023-02-24T18:24:12.216Z,3.6
2023-02-24T18:27:12.078Z,3.6
2023-02-24T18:30:12.496Z,3.6
2023-02-24T18:33:13.820Z,3.6
2023-02-24T18:36:12.128Z,3.7
2023-02-24T18:39:12.241Z,3.7
2023-02-24T18:42:12.230Z,3.7
2023-02-24T18:45:12.320Z,3.7
2023-02-24T18:48:12.238Z,3.7
2023-02-24T18:51:12.175Z,3.7
2023-02-24T18:54:12.242Z,3.9
2023-02-24T18:57:12.169Z,3.9
2023-02-24T19:00:14.392Z,3.9
2023-02-24T19:03:12.773Z,3.9
2023-02-24T19:06:12.239Z,3.9
2023-02-24T19:09:12.222Z,3.9
2023-02-24T19:12:12.210Z,3.9
2023-02-24T19:15:12.184Z,3.9
2023-02-24T19:18:12.147Z,3.9
2023-02-24T19:21:12.204Z,3.9
2023-02-24T19:24:12.234Z,3.9
2023-02-24T19:27:12.203Z,4
2023-02-24T19:30:12.564Z,4
2023-02-24T19:33:13.191Z,4
2023-02-24T19:36:12.227Z,4
2023-02-24T19:39:12.316Z,4
2023-02-24T19:42:12.247Z,4
2023-02-24T19:45:12.238Z,4
2023-02-24T19:48:12.356Z,4
2023-02-24T19:51:12.110Z,4
2023-02-24T19:54:12.301Z,4
2023-02-24T19:57:14.690Z,4
2023-02-24T20:00:12.161Z,3.9
2023-02-24T20:03:12.136Z,3.9
2023-02-24T20:06:12.435Z,3.9
2023-02-24T20:09:12.091Z,4
2023-02-24T20:12:12.221Z,4
2023-02-24T20:15:12.270Z,4
2023-02-24T20:18:12.218Z,4
2023-02-24T20:21:12.189Z,4
2023-02-24T20:24:14.150Z,4
2023-02-24T20:27:12.258Z,4
2023-02-24T20:30:12.426Z,4
2023-02-24T20:33:12.136Z,4
2023-02-24T20:36:12.435Z,4
2023-02-24T20:39:12.145Z,4
2023-02-24T20:42:12.202Z,4
2023-02-24T20:45:12.217Z,4
2023-02-24T20:48:12.197Z,4
2023-02-24T20:51:12.230Z,4
2023-02-24T20:54:12.102Z,4
2023-02-24T20:57:12.173Z,4
2023-02-24T21:00:15.399Z,4
2023-02-24T21:03:12.282Z,3.9
2023-02-24T21:06:34.025Z,3.9
2023-02-24T21:09:12.198Z,3.9
2023-02-24T21:12:12.195Z,3.7
2023-02-24T21:15:12.304Z,3.7
2023-02-24T21:18:12.218Z,3.7
2023-02-24T21:21:12.145Z,3.7
2023-02-24T21:24:12.189Z,3.7
2023-02-24T21:27:12.266Z,3.7
2023-02-24T21:30:12.199Z,3.7
2023-02-24T21:33:12.105Z,3.7
2023-02-24T21:36:12.171Z,3.7
2023-02-24T21:39:12.257Z,3.7
2023-02-24T21:42:12.123Z,3.7
2023-02-24T21:45:12.377Z,3.7
2023-02-24T21:48:12.243Z,3.7
2023-02-24T21:51:12.408Z,3.7
2023-02-24T21:54:12.211Z,3.9
2023-02-24T21:57:12.199Z,3.9
2023-02-24T22:00:12.221Z,3.9
2023-02-24T22:03:12.712Z,3.9
2023-02-24T22:06:12.205Z,3.9
2023-02-24T22:09:12.184Z,3.9
2023-02-24T22:12:12.183Z,3.9
2023-02-24T22:15:12.239Z,3.9
2023-02-24T22:18:12.235Z,3.9
2023-02-24T22:21:12.238Z,3.9
2023-02-24T22:24:12.200Z,3.9
2023-02-24T22:27:12.229Z,3.9
2023-02-24T22:30:12.161Z,3.9
2023-02-24T22:33:12.162Z,3.9
2023-02-24T22:36:12.215Z,3.7
2023-02-24T22:39:12.206Z,3.7
2023-02-24T22:42:12.074Z,3.7
2023-02-24T22:45:12.193Z,3.7
2023-02-24T22:48:12.634Z,3.7
2023-02-24T22:51:12.243Z,3.7
2023-02-24T22:54:12.155Z,3.7
2023-02-24T22:57:12.146Z,3.7
2023-02-24T23:00:12.771Z,3.7
2023-02-24T23:03:12.393Z,3.9
2023-02-24T23:06:12.209Z,3.7
2023-02-24T23:09:12.206Z,3.7
2023-02-24T23:12:14.036Z,3.6
2023-02-24T23:15:12.209Z,3.6
2023-02-24T23:18:12.178Z,3.6
2023-02-24T23:21:12.198Z,3.7
2023-02-24T23:24:12.187Z,3.7
2023-02-24T23:27:12.183Z,3.7
2023-02-24T23:30:12.177Z,3.7
2023-02-24T23:33:12.121Z,3.9
2023-02-24T23:36:12.253Z,3.7
2023-02-24T23:39:12.198Z,3.7
2023-02-24T23:42:12.215Z,3.7
2023-02-24T23:45:12.219Z,3.7
2023-02-24T23:48:12.216Z,3.9
2023-02-24T23:51:12.177Z,3.9
2023-02-24T23:54:12.225Z,3.9
2023-02-24T23:57:12.177Z,3.7
